Tropical Cyclones
[Index]
Main Index Home Page Stock Weather Photos Extreme Storms Discussion Storm News and Storm Chasing Reports Tropical Cyclones / Hurricanes / Typhoons Weather Data and Links Wild Fires / Bushfires Weather Observation Techniques Weather Picture Catalogue Tornado Pictures and Reports Stock Video Footage and DVDs for sale
Season 2001-2002 Tropical Cyclone GUILLAUME Track Map
Season 2001-2002 Summaries (Operational Data): [AU] [SIO] [SPAC] [SH]
<<- Previous TC | 2001-2002 Season | Next TC ->>

click for intensity scale information  Lat/long Grid: Show Hide

 Date Labels: Show Hide

Operational Tropical Cyclone Data : JTWC Advisories

Name: GUILLAUME
Number: 0215

14 Feb 2002 12:00 UTC to 22 Feb 2002 18:00 UTC

    date/time    lat    long     hPa   cat  kts
2002-02-14 12   18.0    50.0    1005         20          
2002-02-15 06   16.0    50.9    1003         25          
2002-02-15 12   16.0    51.2    1000         25          
2002-02-15 18   15.7    51.4    1000         25          
2002-02-16 00   15.0    51.6     997         30          
2002-02-16 06   14.7    52.5     997         30          
2002-02-16 12   14.5    52.9     995    1    35          
2002-02-16 18   14.2    54.4     993    1    35          
2002-02-17 00   14.4    55.3     975    2    55          
2002-02-17 06   14.5    56.4     965    3    70          
2002-02-17 12   14.9    57.2     950    3    80          
2002-02-17 18   15.5    58.1     950    3    80          
2002-02-18 00   16.2    58.8     950    3    80          
2002-02-18 06   16.8    59.3     950    3    80          
2002-02-18 12   17.5    59.4     925    4   100          
2002-02-18 18   18.1    59.5     920    4   105          
2002-02-19 00   19.0    59.4     920    4   105          
2002-02-19 06   19.4    59.2     925    4   100          
2002-02-19 12   20.1    59.0     930    4   100          
2002-02-19 18   20.6    58.9     930    4   100          
2002-02-20 00   20.7    58.8     930    4   100          
2002-02-20 06   21.0    58.9     930    4   100          
2002-02-20 12   21.7    59.2     930    4   100          
2002-02-20 18   22.4    59.8     940    4    90          
2002-02-21 00   23.1    60.1     945    3    85          
2002-02-21 06   24.0    60.6     965    3    70          
2002-02-21 12   25.2    61.6     968    3    65          
2002-02-21 18   26.4    62.9     975    2    55          
2002-02-22 00   25.8    61.8     990    1    40          
2002-02-22 06   25.9    62.4     995    1    40          
2002-02-22 12   26.1    62.8     998         30          
2002-02-22 18   26.4    64.0                             
Winds are 10-min average.

Tropical cyclone tracks developed by Michael Bath using operational warnings and advisories and Google Maps.


[Australian Severe Weather index] [Copyright Notice] [Email Contacts] [Search This Site] [Privacy Policy]
Document: tropical_cyclone_guillaume.htm Updated: 28 May 2013